Time;durP1;ratioP1;P1;durP2;ratioP2;P2;SDS_P1;SDS_P2;PMS_P1;PMS_P2;Temp;Humidity;BMP_temperature;BMP_pressure;BME280_temperature;BME280_humidity;BME280_pressure;Samples;Min_cycle;Max_cycle;Signal;HPM_P1;HPM_P2
2021/09/15 00:01:38;;;;;;;4.45;2.47;;;;;;;13.07;65.37;100051.34;1678539;85;20927;-69
2021/09/15 00:04:05;;;;;;;4.50;2.05;;;;;;;13.08;65.34;100048.93;1744045;82;21058;-72
2021/09/15 00:06:32;;;;;;;3.45;2.85;;;;;;;13.07;65.80;100047.30;1713435;83;20995;-68
2021/09/15 00:08:58;;;;;;;5.45;2.37;;;;;;;13.04;66.18;100057.27;1728189;81;21554;-71
2021/09/15 00:11:26;;;;;;;3.83;2.33;;;;;;;13.01;66.00;100048.31;1739815;82;20943;-70
2021/09/15 00:13:52;;;;;;;4.28;2.58;;;;;;;12.95;66.57;100056.91;1739530;82;20996;-69
2021/09/15 00:16:20;;;;;;;5.35;2.45;;;;;;;12.91;66.16;100054.97;1731748;82;21543;-71
2021/09/15 00:18:47;;;;;;;5.65;2.42;;;;;;;12.90;66.22;100060.91;1710186;83;21040;-68
2021/09/15 00:21:13;;;;;;;6.95;3.00;;;;;;;12.86;65.73;100059.80;1659179;85;21581;-68
2021/09/15 00:23:41;;;;;;;9.80;2.37;;;;;;;12.84;65.84;100068.70;1687253;83;21002;-68
2021/09/15 00:26:09;;;;;;;6.97;2.92;;;;;;;12.82;65.91;100070.83;1684585;85;21518;-72
2021/09/15 00:28:37;;;;;;;3.55;2.45;;;;;;;12.84;65.69;100073.28;1684711;85;20963;-70
2021/09/15 00:31:04;;;;;;;3.47;2.42;;;;;;;12.84;65.79;100075.45;1658660;85;21053;-69
2021/09/15 00:33:30;;;;;;;4.35;2.55;;;;;;;12.85;65.84;100079.78;1684431;85;21634;-68
2021/09/15 00:35:59;;;;;;;2.65;2.05;;;;;;;12.86;66.36;100073.82;1684576;85;20915;-69
2021/09/15 00:38:25;;;;;;;5.28;3.42;;;;;;;12.82;66.13;100074.87;1684274;85;21530;-68
2021/09/15 00:40:51;;;;;;;2.95;2.10;;;;;;;12.81;66.78;100077.28;1714955;82;21042;-69
2021/09/15 00:43:17;;;;;;;6.30;2.50;;;;;;;12.79;66.51;100072.70;1659570;85;21038;-68
2021/09/15 00:45:44;;;;;;;5.17;2.40;;;;;;;12.75;66.39;100076.16;1685281;85;21054;-69
2021/09/15 00:48:10;;;;;;;7.00;2.27;;;;;;;12.73;66.49;100076.94;1685148;85;21236;-70
2021/09/15 00:50:36;;;;;;;2.42;2.10;;;;;;;12.71;66.54;100082.58;1699537;84;20970;-68
2021/09/15 00:53:03;;;;;;;4.30;2.42;;;;;;;12.67;66.42;100079.58;1684923;85;21021;-68
2021/09/15 00:55:29;;;;;;;3.40;2.58;;;;;;;12.67;66.83;100081.46;1675795;83;21007;-69
2021/09/15 00:57:56;;;;;;;3.77;2.40;;;;;;;12.63;67.30;100086.55;1684872;85;20978;-67
2021/09/15 01:00:25;;;;;;;4.53;2.60;;;;;;;12.57;68.84;100086.74;1686926;83;21810;-74
2021/09/15 01:02:52;;;;;;;5.03;3.05;;;;;;;12.46;68.37;100085.84;1687619;83;21008;-70
2021/09/15 01:05:20;;;;;;;4.17;2.20;;;;;;;12.43;68.54;100086.33;1655915;86;21027;-72
2021/09/15 01:07:47;;;;;;;3.17;2.20;;;;;;;12.38;67.89;100083.56;1631188;86;20983;-69
2021/09/15 01:10:13;;;;;;;4.55;2.50;;;;;;;12.37;69.00;100081.14;1699816;84;20975;-70
2021/09/15 01:12:43;;;;;;;3.12;2.30;;;;;;;12.37;69.45;100083.84;1709233;82;21963;-68
2021/09/15 01:15:12;;;;;;;2.40;2.20;;;;;;;12.34;70.03;100082.97;1710301;83;21515;-68
2021/09/15 01:17:41;;;;;;;3.05;2.30;;;;;;;12.33;70.59;100085.38;1710743;82;20971;-69
2021/09/15 01:20:23;;;;;;;5.35;2.10;;;;;;;12.35;71.10;100085.43;1672151;83;21497;-72
2021/09/15 01:23:04;;;;;;;3.08;2.80;;;;;;;12.43;71.51;100082.27;1738655;81;21078;-68
2021/09/15 01:25:41;;;;;;;3.02;2.72;;;;;;;12.45;71.83;100084.20;1686029;83;21168;-68
2021/09/15 01:28:12;;;;;;;3.45;2.85;;;;;;;12.53;71.94;100079.70;1659178;85;20940;-69
2021/09/15 01:30:42;;;;;;;4.45;3.12;;;;;;;12.58;72.07;100081.10;1684254;85;21505;-68
2021/09/15 01:33:15;;;;;;;3.02;2.35;;;;;;;12.55;71.79;100082.97;1684029;83;21488;-71
2021/09/15 01:35:42;;;;;;;6.50;2.20;;;;;;;12.59;71.05;100088.14;1728617;83;21023;-67
2021/09/15 01:38:10;;;;;;;3.40;2.40;;;;;;;12.64;70.49;100073.35;1680189;83;21769;-68
2021/09/15 01:40:38;;;;;;;2.92;2.37;;;;;;;12.67;69.78;100074.71;1705368;83;20999;-68
2021/09/15 01:43:05;;;;;;;3.25;2.42;;;;;;;12.70;69.02;100080.16;1726610;83;21548;-76
2021/09/15 01:45:32;;;;;;;6.75;3.02;;;;;;;12.66;69.74;100073.89;1742209;81;21051;-69
2021/09/15 01:48:00;;;;;;;3.02;2.42;;;;;;;12.63;69.19;100084.39;1744043;82;21059;-68
2021/09/15 01:50:29;;;;;;;4.92;2.58;;;;;;;12.61;69.48;100087.89;1743828;82;21244;-69
2021/09/15 01:52:57;;;;;;;3.85;2.55;;;;;;;12.56;69.66;100088.66;1718640;82;21556;-70
2021/09/15 01:55:29;;;;;;;4.33;2.75;;;;;;;12.51;69.27;100085.08;1743884;82;21057;-69
2021/09/15 01:57:58;;;;;;;3.25;2.40;;;;;;;12.48;69.06;100083.69;1717309;82;21030;-81
2021/09/15 02:00:42;;;;;;;9.15;2.40;;;;;;;12.47;68.78;100086.66;1743841;82;21042;-69
2021/09/15 02:03:12;;;;;;;5.10;2.08;;;;;;;12.46;68.58;100083.67;1741975;82;20974;-68
2021/09/15 02:05:40;;;;;;;3.98;2.15;;;;;;;12.45;68.48;100090.95;1741947;82;20987;-69
2021/09/15 02:08:14;;;;;;;4.12;2.62;;;;;;;12.43;68.48;100091.72;1699435;82;21006;-69
2021/09/15 02:10:44;;;;;;;2.77;1.92;;;;;;;12.40;69.04;100093.58;1740237;82;21495;-68
2021/09/15 02:13:14;;;;;;;7.00;2.80;;;;;;;12.36;69.18;100087.59;1685819;85;21078;-69
2021/09/15 02:15:42;;;;;;;9.58;3.27;;;;;;;12.33;69.51;100086.73;1742043;82;22901;-68
2021/09/15 02:18:08;;;;;;;3.60;2.87;;;;;;;12.29;70.42;100088.30;1744283;81;21050;-68
2021/09/15 02:20:53;;;;;;;4.42;2.80;;;;;;;12.29;70.98;100092.34;1717554;82;20982;-76
2021/09/15 02:23:24;;;;;;;9.38;3.17;;;;;;;12.29;70.82;100091.00;1743133;82;21026;-68
2021/09/15 02:25:58;;;;;;;4.30;2.92;;;;;;;12.33;70.40;100092.13;1718747;82;21077;-70
2021/09/15 02:28:29;;;;;;;4.45;2.65;;;;;;;12.39;69.85;100087.08;1744383;82;21049;-68
2021/09/15 02:31:10;;;;;;;2.33;1.90;;;;;;;12.40;69.07;100096.28;1666429;82;20982;-68
2021/09/15 02:33:41;;;;;;;4.58;2.80;;;;;;;12.38;68.68;100091.66;1741540;82;21011;-68
2021/09/15 02:36:10;;;;;;;4.92;2.65;;;;;;;12.36;68.29;100095.69;1739522;82;21032;-68
2021/09/15 02:38:41;;;;;;;4.40;2.60;;;;;;;12.32;68.21;100094.56;1736831;82;21520;-69
2021/09/15 02:41:15;;;;;;;2.80;2.27;;;;;;;12.31;68.04;100088.88;1718900;82;21288;-68
2021/09/15 02:43:45;;;;;;;5.25;2.72;;;;;;;12.29;67.69;100091.81;1743479;80;21538;-70
2021/09/15 02:46:14;;;;;;;5.20;2.15;;;;;;;12.28;67.46;100089.39;1742164;82;20919;-68
2021/09/15 02:48:45;;;;;;;3.50;2.80;;;;;;;12.24;67.42;100093.10;1667759;82;21217;-68
2021/09/15 02:51:13;;;;;;;4.75;2.70;;;;;;;12.19;67.42;100100.59;1717691;82;21062;-73
2021/09/15 02:53:42;;;;;;;6.40;3.67;;;;;;;12.14;68.23;100101.87;1741359;82;21155;-69
2021/09/15 02:56:20;;;;;;;3.70;2.58;;;;;;;12.08;68.96;100101.55;1683808;85;21465;-69
2021/09/15 02:59:04;;;;;;;9.95;3.00;;;;;;;12.02;69.50;100105.23;1741621;82;21053;-69
2021/09/15 03:01:33;;;;;;;14.53;3.33;;;;;;;11.94;69.54;100098.91;1742037;82;21574;-68
2021/09/15 03:04:04;;;;;;;8.45;2.90;;;;;;;11.87;69.68;100108.24;1713452;83;21003;-70
2021/09/15 03:06:33;;;;;;;7.37;2.45;;;;;;;11.87;69.77;100107.72;1712546;83;21165;-69
2021/09/15 03:09:14;;;;;;;9.00;2.55;;;;;;;11.91;70.20;100107.50;1689257;83;21527;-69
2021/09/15 03:11:41;;;;;;;3.67;2.77;;;;;;;11.91;70.36;100106.67;1713651;83;20967;-70
2021/09/15 03:14:09;;;;;;;6.35;2.80;;;;;;;11.91;70.54;100109.38;1728029;83;21014;-68
2021/09/15 03:16:36;;;;;;;5.83;2.47;;;;;;;11.84;70.67;100112.27;1707075;84;21060;-68
2021/09/15 03:19:07;;;;;;;2.92;2.35;;;;;;;11.73;70.90;100110.47;1707273;83;20973;-68
2021/09/15 03:21:35;;;;;;;6.37;3.65;;;;;;;11.63;71.09;100117.02;1725044;83;20996;-69
2021/09/15 03:24:04;;;;;;;5.85;4.20;;;;;;;11.56;71.05;100117.73;1714040;83;21006;-68
2021/09/15 03:26:31;;;;;;;9.23;3.45;;;;;;;11.55;71.02;100117.44;1727297;83;21066;-68
2021/09/15 03:28:59;;;;;;;8.75;5.12;;;;;;;11.54;71.27;100118.50;1724617;83;21067;-69
2021/09/15 03:31:26;;;;;;;9.15;5.58;;;;;;;11.53;71.26;100117.68;1703606;83;21517;-69
2021/09/15 03:33:53;;;;;;;6.95;3.65;;;;;;;11.53;71.32;100119.55;1732549;82;21070;-71
2021/09/15 03:36:21;;;;;;;7.58;3.00;;;;;;;11.52;71.04;100117.39;1684354;85;20990;-68
2021/09/15 03:38:48;;;;;;;4.92;3.22;;;;;;;11.51;70.61;100118.44;1718334;82;21131;-69
2021/09/15 03:41:15;;;;;;;6.60;4.00;;;;;;;11.52;70.25;100117.91;1736317;82;21557;-69
2021/09/15 03:43:44;;;;;;;6.50;2.80;;;;;;;11.49;69.77;100124.63;1712424;83;21023;-69
2021/09/15 03:46:11;;;;;;;10.10;3.02;;;;;;;11.49;69.48;100120.58;1734688;82;21059;-71
2021/09/15 03:48:39;;;;;;;11.63;3.72;;;;;;;11.51;69.49;100121.13;1739735;82;20990;-69
2021/09/15 03:51:05;;;;;;;12.75;3.40;;;;;;;11.55;69.31;100126.34;1739084;82;21003;-69
2021/09/15 03:53:32;;;;;;;10.28;3.62;;;;;;;11.63;69.42;100127.80;1738004;82;21117;-69
2021/09/15 03:55:59;;;;;;;3.75;3.00;;;;;;;11.71;69.00;100128.19;1683832;85;21503;-69
2021/09/15 03:58:26;;;;;;;6.10;2.62;;;;;;;11.75;68.53;100119.11;1735184;82;20979;-69
2021/09/15 04:00:53;;;;;;;5.53;2.85;;;;;;;11.79;67.95;100125.13;1661887;85;21062;-68
2021/09/15 04:03:19;;;;;;;6.92;2.80;;;;;;;11.82;67.71;100126.50;1736490;82;21528;-68
2021/09/15 04:05:45;;;;;;;8.95;4.42;;;;;;;11.84;67.41;100124.39;1730415;83;21508;-68
2021/09/15 04:08:15;;;;;;;4.53;3.58;;;;;;;11.87;67.16;100129.80;1730762;82;20980;-68
2021/09/15 04:10:43;;;;;;;7.72;2.58;;;;;;;11.89;66.81;100132.55;1714123;82;21522;-68
2021/09/15 04:13:11;;;;;;;5.80;3.17;;;;;;;11.91;66.44;100126.89;1737406;82;21002;-67
2021/09/15 04:15:38;;;;;;;4.50;3.30;;;;;;;11.92;66.23;100133.39;1708344;83;21012;-68
2021/09/15 04:18:06;;;;;;;7.25;2.92;;;;;;;11.92;67.18;100132.05;1710456;83;20986;-69
2021/09/15 04:20:32;;;;;;;4.00;2.75;;;;;;;11.85;68.32;100130.04;1725652;82;21510;-68
2021/09/15 04:23:01;;;;;;;7.42;3.20;;;;;;;11.66;69.57;100142.11;1739404;82;20971;-68
2021/09/15 04:31:21;;;;;;;6.85;3.47;;;;;;;11.37;71.87;100133.30;1728706;82;23477;-71
2021/09/15 04:33:47;;;;;;;12.70;4.53;;;;;;;11.38;71.96;100138.97;1737313;82;21600;-69
2021/09/15 04:36:14;;;;;;;7.40;3.85;;;;;;;11.44;72.16;100139.35;1739682;82;21033;-71
2021/09/15 04:38:41;;;;;;;6.40;2.98;;;;;;;11.55;71.46;100145.73;1700372;83;21129;-70
2021/09/15 04:41:10;;;;;;;4.83;3.00;;;;;;;11.64;70.32;100142.37;1713623;82;21606;-69
2021/09/15 04:43:37;;;;;;;5.95;3.83;;;;;;;11.70;70.19;100147.33;1716220;82;21106;-69
2021/09/15 04:46:04;;;;;;;8.78;3.95;;;;;;;11.68;70.38;100147.55;1713736;83;21059;-68
2021/09/15 04:48:31;;;;;;;11.80;5.17;;;;;;;11.65;70.52;100151.28;1689668;83;21086;-69
2021/09/15 04:50:57;;;;;;;10.08;4.95;;;;;;;11.59;68.83;100152.25;1743304;82;21050;-69
2021/09/15 04:53:24;;;;;;;6.50;4.28;;;;;;;11.51;69.46;100153.45;1685490;85;21033;-69
2021/09/15 04:55:50;;;;;;;7.55;3.60;;;;;;;11.46;69.32;100160.14;1659195;85;21010;-67
2021/09/15 04:58:17;;;;;;;8.03;3.42;;;;;;;11.47;68.81;100161.75;1660757;85;21097;-67
2021/09/15 05:00:45;;;;;;;7.10;4.35;;;;;;;11.47;68.69;100164.97;1741677;82;20942;-68
2021/09/15 05:03:14;;;;;;;4.47;3.35;;;;;;;11.43;68.47;100170.03;1744224;82;20927;-71
2021/09/15 05:05:42;;;;;;;6.37;4.92;;;;;;;11.45;68.37;100165.76;1718532;82;21508;-68
2021/09/15 05:08:11;;;;;;;14.38;4.72;;;;;;;11.47;68.22;100167.13;1744076;82;21051;-69
2021/09/15 05:10:37;;;;;;;5.28;3.25;;;;;;;11.47;67.92;100165.78;1713567;83;21079;-67
2021/09/15 05:13:03;;;;;;;7.97;3.75;;;;;;;11.45;67.64;100168.45;1686555;83;21153;-70
2021/09/15 05:15:30;;;;;;;8.53;4.00;;;;;;;11.43;67.49;100170.56;1671249;85;21101;-68
2021/09/15 05:17:58;;;;;;;5.30;3.60;;;;;;;11.41;67.69;100172.17;1727294;83;20995;-75
2021/09/15 05:20:28;;;;;;;7.17;3.47;;;;;;;11.42;67.58;100171.09;1742126;82;21009;-66
2021/09/15 05:22:55;;;;;;;3.47;2.77;;;;;;;11.44;67.54;100178.94;1718789;82;21088;-67
2021/09/15 05:25:23;;;;;;;11.55;4.22;;;;;;;11.46;67.85;100182.22;1744070;82;20986;-68
2021/09/15 05:27:52;;;;;;;6.67;3.65;;;;;;;11.49;67.56;100189.80;1744052;82;21059;-67
2021/09/15 05:30:21;;;;;;;4.15;3.10;;;;;;;11.54;67.20;100187.19;1713694;83;21041;-68
2021/09/15 05:32:50;;;;;;;6.92;3.67;;;;;;;11.60;66.96;100191.61;1692524;83;21011;-69
2021/09/15 05:35:18;;;;;;;5.90;3.27;;;;;;;11.64;66.89;100192.23;1687454;83;20998;-68
2021/09/15 05:37:45;;;;;;;8.58;4.33;;;;;;;11.70;66.40;100192.57;1706724;83;21121;-67
2021/09/15 05:40:13;;;;;;;7.62;3.98;;;;;;;11.77;66.19;100191.92;1728203;83;20947;-68
2021/09/15 05:42:42;;;;;;;4.40;3.05;;;;;;;11.85;65.85;100192.03;1743477;82;20974;-69
2021/09/15 05:45:10;;;;;;;5.78;3.58;;;;;;;11.93;65.47;100198.38;1687163;83;21058;-68
2021/09/15 05:47:37;;;;;;;6.03;3.15;;;;;;;11.99;64.98;100200.06;1728621;83;21199;-69
2021/09/15 05:50:07;;;;;;;5.35;3.42;;;;;;;12.08;64.49;100205.88;1708713;83;21075;-69
2021/09/15 05:52:36;;;;;;;4.78;3.33;;;;;;;12.16;64.24;100211.67;1697521;83;21029;-68
2021/09/15 05:55:06;;;;;;;8.85;3.72;;;;;;;12.23;63.83;100210.95;1702603;83;21571;-67
2021/09/15 05:57:34;;;;;;;6.15;4.03;;;;;;;12.31;63.59;100205.68;1713423;82;20970;-67
2021/09/15 06:00:02;;;;;;;5.42;3.45;;;;;;;12.40;62.97;100213.63;1686904;83;21009;-68
2021/09/15 06:02:29;;;;;;;10.78;3.50;;;;;;;12.49;62.74;100215.35;1652491;86;21034;-69
2021/09/15 06:04:57;;;;;;;5.30;2.85;;;;;;;12.56;62.41;100218.70;1684761;84;21700;-67
2021/09/15 06:07:26;;;;;;;6.85;3.22;;;;;;;12.63;62.09;100222.84;1684841;84;21016;-68
2021/09/15 06:09:53;;;;;;;5.40;2.92;;;;;;;12.71;61.18;100225.62;1684797;85;21070;-68
2021/09/15 06:12:20;;;;;;;5.25;3.25;;;;;;;12.77;60.78;100215.70;1694385;83;21510;-70
2021/09/15 06:14:48;;;;;;;4.10;3.17;;;;;;;12.82;59.72;100223.87;1718621;83;21016;-67
2021/09/15 06:17:16;;;;;;;4.67;3.12;;;;;;;12.88;59.91;100225.05;1684491;85;21050;-68
2021/09/15 06:19:44;;;;;;;6.28;2.83;;;;;;;12.94;59.88;100229.44;1684393;85;21034;-69
2021/09/15 06:22:14;;;;;;;6.47;2.98;;;;;;;13.01;59.45;100230.05;1712783;83;20971;-68
2021/09/15 06:24:42;;;;;;;6.25;3.95;;;;;;;13.09;59.48;100232.86;1723312;83;21171;-68
2021/09/15 06:27:10;;;;;;;14.40;2.95;;;;;;;13.16;59.20;100229.97;1686782;83;20982;-68
2021/09/15 06:29:38;;;;;;;6.70;3.20;;;;;;;13.23;58.81;100235.48;1721375;83;21125;-69
2021/09/15 06:32:06;;;;;;;4.25;2.75;;;;;;;13.30;58.23;100236.61;1682207;85;21075;-73
2021/09/15 06:34:34;;;;;;;6.28;2.80;;;;;;;13.37;58.29;100235.35;1681908;85;21098;-67
2021/09/15 06:37:03;;;;;;;2.58;2.33;;;;;;;13.46;57.40;100242.46;1715576;82;20944;-69
2021/09/15 06:39:31;;;;;;;6.95;2.27;;;;;;;13.53;56.58;100240.35;1703408;83;21523;-68
2021/09/15 06:41:57;;;;;;;6.85;2.45;;;;;;;13.61;55.82;100243.14;1686819;83;21117;-69
2021/09/15 06:44:23;;;;;;;4.15;3.02;;;;;;;13.68;54.93;100240.50;1683472;85;21097;-70
2021/09/15 06:46:50;;;;;;;6.30;2.40;;;;;;;13.75;55.29;100232.19;1725904;83;21075;-70
2021/09/15 06:49:18;;;;;;;6.90;2.42;;;;;;;13.82;54.92;100238.19;1712035;83;20984;-71
2021/09/15 06:51:45;;;;;;;4.30;2.27;;;;;;;13.89;55.35;100240.97;1701457;83;20967;-72
2021/09/15 06:54:11;;;;;;;4.72;2.87;;;;;;;13.96;55.08;100244.25;1684140;85;20998;-75
2021/09/15 06:56:38;;;;;;;6.33;2.47;;;;;;;14.04;54.59;100239.45;1731876;82;21050;-72
2021/09/15 06:59:04;;;;;;;4.90;2.27;;;;;;;14.08;53.69;100240.03;1740374;82;21519;-72
2021/09/15 07:01:32;;;;;;;3.67;2.17;;;;;;;14.16;52.93;100238.19;1742184;82;21011;-71
2021/09/15 07:03:59;;;;;;;2.98;2.17;;;;;;;14.22;52.45;100238.51;1657535;85;21017;-71
2021/09/15 07:06:25;;;;;;;3.35;2.37;;;;;;;14.29;52.88;100240.44;1712917;83;21000;-72
2021/09/15 07:08:54;;;;;;;3.55;2.22;;;;;;;14.35;52.97;100241.29;1719114;83;21091;-71
2021/09/15 07:11:22;;;;;;;3.05;1.80;;;;;;;14.40;52.69;100244.88;1712260;83;21008;-71
2021/09/15 07:13:48;;;;;;;1.60;1.50;;;;;;;14.47;52.74;100244.66;1697259;83;21182;-70
2021/09/15 07:16:16;;;;;;;4.20;2.35;;;;;;;14.53;51.83;100251.70;1721145;83;21008;-73
2021/09/15 07:18:44;;;;;;;4.47;1.85;;;;;;;14.60;50.59;100251.48;1726576;83;21551;-69
2021/09/15 07:21:13;;;;;;;2.77;1.98;;;;;;;14.65;49.70;100242.86;1728791;83;21599;-70
2021/09/15 07:23:40;;;;;;;6.33;2.35;;;;;;;14.72;48.51;100246.70;1721550;83;21039;-71
2021/09/15 07:26:07;;;;;;;3.62;2.05;;;;;;;14.78;48.08;100251.85;1714049;83;21088;-71
2021/09/15 07:28:33;;;;;;;2.10;1.72;;;;;;;14.83;47.78;100247.81;1724104;83;21054;-75
2021/09/15 07:31:00;;;;;;;3.37;2.17;;;;;;;14.88;47.74;100247.02;1718548;83;20976;-72
2021/09/15 07:33:26;;;;;;;3.58;2.00;;;;;;;14.94;48.07;100250.03;1712847;83;20972;-70
2021/09/15 07:35:53;;;;;;;4.60;1.72;;;;;;;15.01;47.72;100249.80;1733489;82;21556;-71
2021/09/15 07:38:19;;;;;;;4.33;2.30;;;;;;;15.08;47.45;100251.70;1737332;82;21211;-72
2021/09/15 07:40:46;;;;;;;3.47;1.82;;;;;;;15.14;47.60;100239.28;1737178;82;21051;-69
2021/09/15 07:43:12;;;;;;;6.35;2.08;;;;;;;15.21;47.16;100252.02;1737481;82;20970;-72
2021/09/15 07:45:39;;;;;;;3.65;1.95;;;;;;;15.25;46.86;100243.63;1699680;83;20995;-68
2021/09/15 07:48:06;;;;;;;2.55;1.87;;;;;;;15.31;46.72;100243.10;1703906;84;21079;-71
2021/09/15 07:50:32;;;;;;;2.45;1.85;;;;;;;15.36;46.74;100233.63;1736952;82;22094;-69
2021/09/15 07:52:59;;;;;;;3.27;2.55;;;;;;;15.43;46.73;100235.55;1713789;82;21015;-68
2021/09/15 07:55:27;;;;;;;3.55;2.30;;;;;;;15.47;46.80;100236.64;1737078;82;21513;-70
2021/09/15 07:57:54;;;;;;;5.70;2.40;;;;;;;15.55;46.74;100238.84;1730475;82;21013;-69
2021/09/15 08:00:21;;;;;;;11.50;2.10;;;;;;;15.60;46.58;100232.62;1737603;82;21020;-70
2021/09/15 08:02:47;;;;;;;2.58;1.87;;;;;;;15.66;47.17;100238.33;1716171;82;20983;-69
2021/09/15 08:05:18;;;;;;;2.62;1.65;;;;;;;15.76;47.02;100242.41;1669327;84;20994;-69
2021/09/15 08:07:44;;;;;;;6.25;2.58;;;;;;;15.83;46.63;100240.76;1679493;85;21050;-68
2021/09/15 08:10:11;;;;;;;2.35;1.77;;;;;;;15.90;46.76;100230.47;1730413;83;21535;-73
2021/09/15 08:12:38;;;;;;;4.53;2.58;;;;;;;15.96;46.64;100245.67;1681599;85;21022;-70
2021/09/15 08:15:06;;;;;;;3.40;2.30;;;;;;;16.01;46.79;100236.98;1661577;85;21248;-73
2021/09/15 08:17:32;;;;;;;4.28;2.15;;;;;;;16.04;46.56;100236.44;1678754;84;20974;-72
2021/09/15 08:19:59;;;;;;;3.33;1.95;;;;;;;16.08;46.88;100240.77;1687454;84;20986;-72
2021/09/15 08:22:25;;;;;;;2.35;1.67;;;;;;;16.13;47.23;100255.69;1694336;83;21086;-72
2021/09/15 08:24:52;;;;;;;4.85;1.65;;;;;;;16.17;47.21;100245.09;1687653;83;21211;-72
2021/09/15 08:27:19;;;;;;;7.83;2.08;;;;;;;16.18;47.15;100243.47;1691073;84;21575;-71
2021/09/15 08:29:45;;;;;;;3.40;2.27;;;;;;;16.20;47.41;100239.95;1718495;82;20997;-72
2021/09/15 08:32:12;;;;;;;8.58;2.05;;;;;;;16.25;47.52;100232.35;1736627;82;21019;-71
2021/09/15 08:34:38;;;;;;;2.95;2.20;;;;;;;16.30;47.75;100237.23;1710900;83;21011;-73
2021/09/15 08:37:05;;;;;;;5.67;1.90;;;;;;;16.34;47.64;100226.09;1704993;83;21035;-72
2021/09/15 08:39:32;;;;;;;3.90;1.95;;;;;;;16.39;47.67;100232.05;1703128;83;21833;-70
2021/09/15 08:41:58;;;;;;;4.47;2.35;;;;;;;16.41;47.22;100236.64;1726185;83;20990;-71
2021/09/15 08:44:24;;;;;;;3.02;1.75;;;;;;;16.43;47.24;100235.30;1717504;83;20949;-72
2021/09/15 08:46:53;;;;;;;4.95;2.67;;;;;;;16.43;47.32;100233.94;1724473;83;21023;-71
2021/09/15 08:49:20;;;;;;;4.35;2.40;;;;;;;16.47;47.33;100227.41;1718869;83;21012;-75
2021/09/15 08:51:46;;;;;;;3.70;2.22;;;;;;;16.52;47.74;100232.83;1700724;83;22105;-71
2021/09/15 08:54:14;;;;;;;2.70;1.70;;;;;;;16.56;47.71;100232.54;1660494;86;21097;-72
2021/09/15 08:56:42;;;;;;;4.72;2.05;;;;;;;16.63;47.75;100218.71;1654458;86;21015;-72
2021/09/15 08:59:09;;;;;;;2.47;1.80;;;;;;;16.71;47.82;100218.13;1642934;86;21031;-71
2021/09/15 09:01:38;;;;;;;2.95;2.00;;;;;;;16.77;47.41;100226.00;1715670;83;21055;-71
2021/09/15 09:04:04;;;;;;;5.17;2.42;;;;;;;16.84;47.64;100211.55;1725600;83;21134;-70
2021/09/15 09:06:34;;;;;;;4.75;2.00;;;;;;;16.91;46.86;100217.52;1723469;83;21528;-70
2021/09/15 09:09:04;;;;;;;1.75;1.50;;;;;;;16.98;46.38;100203.61;1714550;83;21023;-72
2021/09/15 09:11:34;;;;;;;3.27;1.60;;;;;;;17.06;46.11;100209.84;1694140;83;21086;-77
2021/09/15 09:14:04;;;;;;;2.40;1.57;;;;;;;17.16;45.43;100206.25;1720456;81;21029;-71
2021/09/15 09:16:47;;;;;;;2.30;1.60;;;;;;;17.21;45.41;100219.28;1724714;83;21364;-69
2021/09/15 09:19:20;;;;;;;4.08;1.90;;;;;;;17.26;45.25;100211.09;1725574;83;20949;-69
2021/09/15 09:21:52;;;;;;;3.60;1.95;;;;;;;17.33;45.45;100210.22;1705192;83;21568;-71
2021/09/15 09:24:23;;;;;;;1.47;1.30;;;;;;;17.37;44.88;100219.43;1712873;83;21548;-71
2021/09/15 09:26:56;;;;;;;4.78;2.35;;;;;;;17.40;45.00;100204.47;1722293;83;20959;-72
2021/09/15 09:29:33;;;;;;;6.50;2.52;;;;;;;17.46;44.75;100208.77;1712297;83;21168;-70
2021/09/15 09:32:09;;;;;;;4.70;1.82;;;;;;;17.52;44.40;100199.48;1707187;83;21947;-70
2021/09/15 09:34:49;;;;;;;3.02;1.90;;;;;;;17.55;44.31;100207.64;1702103;83;20911;-70
2021/09/15 09:37:19;;;;;;;5.58;1.87;;;;;;;17.59;44.44;100201.92;1737829;82;21050;-69
2021/09/15 09:39:50;;;;;;;5.12;1.77;;;;;;;17.66;44.57;100192.87;1716210;82;21027;-70
2021/09/15 09:42:27;;;;;;;1.82;1.70;;;;;;;17.73;43.87;100187.94;1699537;83;21023;-70
2021/09/15 09:45:10;;;;;;;4.40;2.40;;;;;;;17.82;42.74;100206.63;1702513;83;20956;-71
2021/09/15 09:47:38;;;;;;;5.45;2.25;;;;;;;17.84;43.08;100199.80;1713629;83;21039;-68
2021/09/15 09:50:16;;;;;;;3.45;2.10;;;;;;;17.84;43.06;100190.84;1726714;81;20963;-71
2021/09/15 09:53:00;;;;;;;4.35;2.10;;;;;;;17.84;42.82;100192.20;1721202;82;21035;-68
2021/09/15 09:55:36;;;;;;;1.77;1.57;;;;;;;17.88;42.23;100193.80;1699769;82;22245;-72
2021/09/15 09:58:04;;;;;;;2.00;1.50;;;;;;;17.93;39.86;100202.73;1702265;83;21034;-69
2021/09/15 10:00:31;;;;;;;3.12;1.87;;;;;;;17.95;39.01;100196.98;1702214;83;21582;-70
2021/09/15 10:02:59;;;;;;;2.25;1.30;;;;;;;17.93;39.69;100198.66;1723860;82;21102;-69
2021/09/15 10:05:26;;;;;;;4.17;1.72;;;;;;;17.95;39.39;100191.54;1686022;84;21011;-70
2021/09/15 10:07:52;;;;;;;2.05;1.85;;;;;;;17.95;40.27;100186.91;1716328;82;21210;-70
2021/09/15 10:10:21;;;;;;;1.55;1.37;;;;;;;17.99;39.56;100185.78;1727777;82;21020;-69
2021/09/15 10:12:50;;;;;;;2.98;1.87;;;;;;;18.04;40.21;100184.38;1702395;83;21153;-72
2021/09/15 10:15:16;;;;;;;2.70;1.67;;;;;;;18.08;39.67;100190.31;1728382;83;21035;-70
2021/09/15 10:17:51;;;;;;;5.90;1.52;;;;;;;18.10;39.25;100191.41;1726930;82;21060;-70
2021/09/15 10:20:30;;;;;;;3.50;1.57;;;;;;;18.15;38.95;100194.08;1721793;82;21131;-69
2021/09/15 10:22:58;;;;;;;2.70;1.87;;;;;;;18.17;39.40;100181.81;1702738;83;21563;-74
2021/09/15 10:25:38;;;;;;;3.62;1.45;;;;;;;18.23;39.49;100190.17;1723253;83;21062;-70
2021/09/15 10:28:09;;;;;;;3.50;1.98;;;;;;;18.25;39.61;100178.45;1728049;82;21105;-70
2021/09/15 10:30:53;;;;;;;11.43;3.15;;;;;;;18.32;39.72;100169.92;1725471;82;21112;-69
2021/09/15 10:33:41;;;;;;;;;;;;;;;18.37;39.27;100160.92;1725731;82;21351;-73
2021/09/15 10:36:20;;;;;;;3.00;1.65;;;;;;;18.43;38.55;100180.16;1705883;83;20249;-72
2021/09/15 10:38:56;;;;;;;2.83;1.90;;;;;;;18.49;39.49;100164.03;1685307;83;20991;-71
2021/09/15 10:41:42;;;;;;;4.12;1.70;;;;;;;18.53;39.76;100157.73;1705010;83;21003;-71
2021/09/15 10:44:13;;;;;;;4.30;1.98;;;;;;;18.64;39.77;100161.16;1706685;83;22423;-71
2021/09/15 10:46:42;;;;;;;4.10;1.50;;;;;;;18.79;39.45;100170.51;1709078;83;21339;-70
2021/09/15 10:49:26;;;;;;;5.35;1.80;;;;;;;18.89;38.90;100159.47;1708603;83;21413;-72
2021/09/15 10:52:13;;;;;;;5.37;2.25;;;;;;;18.98;38.51;100144.63;1707116;83;26718;-74
2021/09/15 10:54:46;;;;;;;4.90;2.27;;;;;;;19.06;38.07;100150.77;1705830;83;21033;-76
2021/09/15 10:57:30;;;;;;;9.78;3.17;;;;;;;19.18;37.23;100154.67;1727174;81;21121;-70
2021/09/15 11:00:21;;;;;;;7.60;3.85;;;;;;;19.33;37.41;100146.81;1704580;83;22381;-70
2021/09/15 11:02:49;;;;;;;5.97;2.20;;;;;;;19.42;34.92;100145.06;1692225;83;21548;-70
2021/09/15 11:05:41;;;;;;;7.72;2.62;;;;;;;19.44;35.00;100144.22;1711293;83;21342;-70
2021/09/15 11:08:12;;;;;;;3.08;1.98;;;;;;;19.51;34.75;100141.13;1711318;83;20919;-69
2021/09/15 11:10:42;;;;;;;3.08;2.12;;;;;;;19.61;34.74;100130.59;1704404;83;21560;-73
2021/09/15 11:13:13;;;;;;;3.45;1.80;;;;;;;19.67;34.68;100134.84;1692155;83;20947;-72
2021/09/15 11:15:48;;;;;;;2.50;1.67;;;;;;;19.74;35.56;100128.45;1708189;83;20963;-72
2021/09/15 11:18:21;;;;;;;3.02;1.77;;;;;;;19.77;35.73;100125.11;1687515;84;21086;-72
2021/09/15 11:21:02;;;;;;;3.92;1.60;;;;;;;19.86;35.57;100124.13;1687960;84;21041;-72
2021/09/15 11:23:30;;;;;;;5.72;2.05;;;;;;;19.94;34.80;100120.72;1719405;82;20947;-72
2021/09/15 11:25:58;;;;;;;4.90;2.17;;;;;;;20.02;34.10;100119.20;1689687;83;21011;-72
2021/09/15 11:28:25;;;;;;;3.33;2.30;;;;;;;20.09;32.18;100111.98;1712181;83;20959;-72
2021/09/15 11:31:01;;;;;;;3.92;1.90;;;;;;;20.13;31.71;100112.44;1712081;83;21511;-73
2021/09/15 11:33:36;;;;;;;1.82;1.42;;;;;;;20.11;32.33;100126.13;1689831;83;21695;-73
2021/09/15 11:36:05;;;;;;;4.17;1.20;;;;;;;20.09;31.22;100117.45;1713020;83;20939;-74
2021/09/15 11:38:38;;;;;;;3.25;2.60;;;;;;;20.15;31.30;100106.66;1713733;83;21115;-71
2021/09/15 11:41:12;;;;;;;5.78;1.70;;;;;;;20.21;31.46;100113.09;1728607;82;21111;-73